Nearby METAR Reports

 

KAGC - Pittsburgh/Alleg, Pennsylvania, USA
Distance from station: N 14mi, 23km
Updated: Sun, Jun-20-2021 10:53pm EDT
Clear
Clear
 Wind from SSW
Wind: SSW 7 mph , 11 km/h
Temperature: 79°F , 26°C
Dew Point: 68°F , 20°C
Humidity: 70%
Barometer: 29.75 inHg , 1007.5 hPa
Clouds: Clear
Visibility: 10 miles , 16 km
2021/06/21 02:53 KAGC 210253Z 20006KT 10SM CLR 26/20 A2975 RMK AO2 SLP069 T02560200 55005
KAFJ - Washington, Pennsylvania, USA
Distance from station: W 17mi, 28km
Updated: Sun, Jun-20-2021 10:56pm EDT
Clear
Clear
 Wind from calm
Wind: Calm
Temperature: 72°F , 22°C
Dew Point: 70°F , 21°C
Humidity: 94%
Barometer: 29.79 inHg , 1008.8 hPa
Clouds: Clear
Visibility: 10 miles , 16 km
2021/06/21 02:56 KAFJ 210256Z AUTO 00000KT 10SM CLR 22/21 A2979 RMK AO2 SLP077 T02170206 55004
 
KLBE - Latrobe, Pennsylvania, USA
Distance from station: ENE 30mi, 48km
Updated: Sun, Jun-20-2021 10:55pm EDT
Clear
Clear
 Wind from calm
Wind: Calm
Temperature: 75°F , 24°C
Dew Point: 70°F , 21°C
Humidity: 83%
Barometer: 29.76 inHg , 1007.8 hPa
Clouds: Clear
Visibility: 10 miles , 16 km
2021/06/21 02:55 KLBE 210255Z AUTO 00000KT 10SM CLR 24/21 A2976 RMK AO2
KPIT - Pittsburgh, Pennsylvania, USA
Distance from station: NW 30mi, 48km
Updated: Sun, Jun-20-2021 10:51pm EDT
Mostly cloudy
Mostly cloudy
 Wind from S
Wind: S 5 mph , 7 km/h
Temperature: 77°F , 25°C
Dew Point: 66°F , 19°C
Humidity: 69%
Barometer: 29.74 inHg , 1007.1 hPa
Clouds: Mostly cloudy
Visibility: 10 miles , 16 km
Cloud details: Few Clouds 8000 ft
Mostly cloudy 25000 ft
2021/06/21 02:51 KPIT 210251Z 18004KT 10SM FEW080 BKN250 25/19 A2974 RMK AO2 SLP068 T02500194 55008
 
KMGW - Morgantown, West Virginia, USA
Distance from station: S 34mi, 55km
Updated: Sun, Jun-20-2021 10:53pm EDT
Clear
Clear
 Wind from S
Wind: S 3 mph , 6 km/h
Temperature: 75°F , 24°C
Dew Point: 68°F , 20°C
Humidity: 78%
Barometer: 29.78 inHg , 1008.5 hPa
Clouds: Clear
Visibility: 10 miles , 16 km
2021/06/21 02:53 KMGW 210253Z 17003KT 10SM CLR 24/20 A2978 RMK AO2 SLP075 T02390200 56006
KHLG - Wheeling, West Virginia, USA
Distance from station: W 37mi, 60km
Updated: Sun, Jun-20-2021 10:53pm EDT
Clear
Clear
 Wind from S
Wind: S 8 mph , 13 km/h
Temperature: 75°F , 24°C
Dew Point: 68°F , 20°C
Humidity: 78%
Barometer: 29.75 inHg , 1007.5 hPa
Clouds: Clear
Visibility: 10 miles , 16 km
2021/06/21 02:53 KHLG 210253Z AUTO 19007KT 10SM CLR 24/20 A2975 RMK AO2 SLP067 T02440200 56007
 
KBTP - Butler Co., Pennsylvania, USA
Distance from station: N 43mi, 69km
Updated: Sun, Jun-20-2021 10:56pm EDT
Clear
Clear
 Wind from SSW
Wind: SSW 6 mph , 9 km/h
Temperature: 75°F , 24°C
Dew Point: 68°F , 20°C
Humidity: 78%
Barometer: 29.76 inHg , 1007.8 hPa
Clouds: Clear
Visibility: 10 miles , 16 km
2021/06/21 02:56 KBTP 210256Z AUTO 20005KT 10SM CLR 24/20 A2976 RMK AO2 SLP069 T02440200 52004
KBVI - Beaver Falls Arp, Pennsylvania, USA
Distance from station: NNW 49mi, 79km
Updated: Sun, Jun-20-2021 10:55pm EDT
Clear
Clear
 Wind from S
Wind: S 6 mph , 9 km/h
Temperature: 75°F , 24°C
Dew Point: 68°F , 20°C
Humidity: 78%
Barometer: 29.75 inHg , 1007.5 hPa
Clouds: Clear
Visibility: 10 miles , 16 km
2021/06/21 02:55 KBVI 210255Z AUTO 19005KT 10SM CLR 24/20 A2975 RMK AO2 T02350201
 
K2G4 - Garrett Co, Maryland, USA
Distance from station: SE 51mi, 82km
Updated: Sun, Jun-20-2021 10:55pm EDT
Clear
Clear
 Wind from S
Wind: S 7 mph , 11 km/h
Temperature: 68°F , 20°C
Dew Point: 63°F , 17°C
Humidity: 83%
Barometer: 29.88 inHg , 1011.9 hPa
Clouds: Clear
Visibility: 10 miles , 16 km
2021/06/21 02:55 K2G4 210255Z AUTO 19006KT 10SM CLR 20/17 A2988 RMK AO1
KIDI - Indiana/Stewart, Pennsylvania, USA
Distance from station: NE 56mi, 90km
Updated: Sun, Jun-20-2021 10:55pm EDT
Clear
Clear
 Wind from calm
Wind: Calm
Temperature: 73°F , 23°C
Dew Point: 70°F , 21°C
Humidity: 89%
Barometer: 29.79 inHg , 1008.8 hPa
Clouds: Clear
Visibility: 10 miles , 16 km
2021/06/21 02:55 KIDI 210255Z AUTO 00000KT 10SM CLR 23/21 A2979 RMK A01
 
KJST - Johnstown, Pennsylvania, USA
Distance from station: ENE 60mi, 96km
Updated: Sun, Jun-20-2021 10:54pm EDT
Clear
Clear
 Wind from S
Wind: S 7 mph , 11 km/h
Temperature: 72°F , 22°C
Dew Point: 64°F , 18°C
Humidity: 78%
Barometer: 29.82 inHg , 1009.8 hPa
Clouds: Clear
Visibility: 10 miles , 16 km
2021/06/21 02:54 KJST 210254Z AUTO 18006KT 10SM CLR 22/18 A2982 RMK AO2 SLP078 T02220178 58006
KCBE - Cumberland Reg, Maryland, USA
Distance from station: ESE 72mi, 116km
Updated: Sun, Jun-20-2021 10:55pm EDT
Clear
Clear
 Wind from calm
Wind: Calm
Temperature: 70°F , 21°C
Dew Point: 64°F , 18°C
Humidity: 83%
Barometer: 29.81 inHg , 1009.5 hPa
Clouds: Clear
Visibility: 10 miles , 16 km
2021/06/21 02:55 KCBE 210255Z AUTO 00000KT 10SM CLR 21/18 A2981 RMK AO2 T02090185
 
KILG - Wilmington, Delaware, USA
Distance from station: ESE 234mi, 377km
Updated: Sun, Jun-20-2021 10:51pm EDT
Clear
Clear
 Wind from S
Wind: S 9 mph , 15 km/h
Temperature: 79°F , 26°C
Dew Point: 72°F , 22°C
Humidity: 79%
Barometer: 29.80 inHg , 1009.1 hPa
Clouds: Clear
Visibility: 10 miles , 16 km
2021/06/21 02:51 KILG 210251Z AUTO 19008KT 10SM CLR 26/22 A2980 RMK AO2 SLP091 T02560217 53005 $
KTUS - Tucson, Arizona, USA
Distance from station: WSW 1806mi, 3283km
Updated: Sun, Jun-20-2021 10:53pm EDT
Clear
Clear
 Wind from WNW
Wind: WNW 13 mph , 20 km/h, Gust: 22 mph , 35 km/h
Temperature: 100°F , 38°C
Dew Point: 41°F , 5°C
Humidity: 13%
Barometer: 29.84 inHg , 1010.5 hPa
Clouds: Clear
Visibility: 10 miles , 16 km
2021/06/21 02:53 KTUS 210253Z 30011G19KT 10SM CLR 38/05 A2984 RMK AO2 SLP042 T03830050 53007